Time;durP1;ratioP1;P1;durP2;ratioP2;P2;SDS_P1;SDS_P2;PMS_P1;PMS_P2;Temp;Humidity;BMP_temperature;BMP_pressure;BME280_temperature;BME280_humidity;BME280_pressure;Samples;Min_cycle;Max_cycle;Signal;HPM_P1;HPM_P2
2021/09/02 00:02:00;;;;;;;0.00;0.00;;;;;;;;;;10526860;28;20047;-76
2021/09/02 00:07:03;;;;;;;0.00;0.00;;;;;;;;;;10518820;28;20064;-75
2021/09/02 00:12:06;;;;;;;0.00;0.00;;;;;;;;;;10519673;28;20477;-76
2021/09/02 00:17:11;;;;;;;0.00;0.00;;;;;;;;;;10500251;28;20048;-76
2021/09/02 00:22:14;;;;;;;0.00;0.00;;;;;;;;;;10519136;28;20374;-75
2021/09/02 00:27:19;;;;;;;0.00;0.00;;;;;;;;;;10513547;28;20041;-84
2021/09/02 00:32:23;;;;;;;0.00;0.00;;;;;;;;;;10499943;28;20055;-85
2021/09/02 00:37:30;;;;;;;0.05;0.05;;;;;;;;;;10502038;28;20476;-84
2021/09/02 00:42:33;;;;;;;0.00;0.00;;;;;;;;;;10523505;28;20044;-84
2021/09/02 00:47:37;;;;;;;0.10;0.10;;;;;;;;;;10515433;28;20527;-83
2021/09/02 00:52:40;;;;;;;0.05;0.05;;;;;;;;;;10514507;28;20475;-83
2021/09/02 00:57:43;;;;;;;0.00;0.00;;;;;;;;;;10517170;28;20044;-83
2021/09/02 01:02:47;;;;;;;0.00;0.00;;;;;;;;;;10510594;28;20051;-83
2021/09/02 01:07:53;;;;;;;0.00;0.00;;;;;;;;;;10488294;28;20054;-83
2021/09/02 01:12:56;;;;;;;0.00;0.00;;;;;;;;;;10513770;28;20055;-84
2021/09/02 01:18:01;;;;;;;0.00;0.00;;;;;;;;;;10507003;28;20041;-84
2021/09/02 01:23:07;;;;;;;0.00;0.00;;;;;;;;;;10516198;28;20511;-84
2021/09/02 01:28:12;;;;;;;0.10;0.10;;;;;;;;;;10499581;28;20138;-84
2021/09/02 01:33:16;;;;;;;0.00;0.00;;;;;;;;;;10518693;28;20052;-84
2021/09/02 01:38:22;;;;;;;0.00;0.00;;;;;;;;;;10515959;28;20079;-83
2021/09/02 01:43:26;;;;;;;0.00;0.00;;;;;;;;;;10509496;28;20047;-83
2021/09/02 01:48:31;;;;;;;0.10;0.10;;;;;;;;;;10500076;28;20044;-83
2021/09/02 01:53:35;;;;;;;0.00;0.00;;;;;;;;;;10515943;28;20044;-83
2021/09/02 01:58:39;;;;;;;0.00;0.00;;;;;;;;;;10511896;28;20049;-82
2021/09/02 02:03:42;;;;;;;0.00;0.00;;;;;;;;;;10511177;28;20143;-74
2021/09/02 02:08:44;;;;;;;0.10;0.03;;;;;;;;;;10499272;28;20647;-75
2021/09/02 02:13:49;;;;;;;0.00;0.00;;;;;;;;;;10508079;28;20139;-75
2021/09/02 02:18:51;;;;;;;0.00;0.00;;;;;;;;;;10494661;28;20055;-74
2021/09/02 02:23:54;;;;;;;0.00;0.00;;;;;;;;;;10514728;28;20051;-73
2021/09/02 02:28:59;;;;;;;0.00;0.00;;;;;;;;;;10509238;28;20044;-74
2021/09/02 02:34:01;;;;;;;0.00;0.00;;;;;;;;;;10508887;28;20557;-74
2021/09/02 02:39:05;;;;;;;0.00;0.00;;;;;;;;;;10511585;28;20041;-74
2021/09/02 02:44:09;;;;;;;0.00;0.00;;;;;;;;;;10518526;28;20071;-74
2021/09/02 02:49:11;;;;;;;0.00;0.00;;;;;;;;;;10507826;28;20406;-74
2021/09/02 02:54:14;;;;;;;0.00;0.00;;;;;;;;;;10506606;28;20127;-75
2021/09/02 02:59:18;;;;;;;0.00;0.00;;;;;;;;;;10511299;28;20405;-75
2021/09/02 03:04:22;;;;;;;0.00;0.00;;;;;;;;;;10497652;28;20050;-75
2021/09/02 03:09:25;;;;;;;0.00;0.00;;;;;;;;;;10502502;28;20056;-75
2021/09/02 03:14:29;;;;;;;0.00;0.00;;;;;;;;;;10487676;28;20063;-75
2021/09/02 03:19:31;;;;;;;0.00;0.00;;;;;;;;;;10514072;28;20397;-75
2021/09/02 03:24:34;;;;;;;0.00;0.00;;;;;;;;;;10518862;28;20528;-73
2021/09/02 03:29:38;;;;;;;0.00;0.00;;;;;;;;;;10508171;28;20048;-75
2021/09/02 03:34:41;;;;;;;0.00;0.00;;;;;;;;;;10499538;28;20052;-73
2021/09/02 03:39:44;;;;;;;0.00;0.00;;;;;;;;;;10515200;28;20123;-73
2021/09/02 03:44:50;;;;;;;0.05;0.05;;;;;;;;;;10524778;28;20402;-74
2021/09/02 03:49:52;;;;;;;0.00;0.00;;;;;;;;;;10516423;28;20514;-72
2021/09/02 03:54:55;;;;;;;0.00;0.00;;;;;;;;;;10521030;28;20126;-72
2021/09/02 03:59:59;;;;;;;0.00;0.00;;;;;;;;;;10503775;28;20131;-72
2021/09/02 04:05:08;;;;;;;0.00;0.00;;;;;;;;;;10510915;28;20044;-74
2021/09/02 04:10:11;;;;;;;0.00;0.00;;;;;;;;;;10514349;28;20521;-73
2021/09/02 04:15:16;;;;;;;0.00;0.00;;;;;;;;;;10510348;28;20426;-74
2021/09/02 04:20:19;;;;;;;0.00;0.00;;;;;;;;;;10510271;28;20053;-72
2021/09/02 04:25:23;;;;;;;0.00;0.00;;;;;;;;;;10499476;28;20044;-72
2021/09/02 04:30:27;;;;;;;0.00;0.00;;;;;;;;;;10519608;28;20428;-72
2021/09/02 04:35:29;;;;;;;0.00;0.00;;;;;;;;;;10508406;28;20052;-73
2021/09/02 04:40:32;;;;;;;0.00;0.00;;;;;;;;;;10521720;28;20044;-72
2021/09/02 04:45:37;;;;;;;0.00;0.00;;;;;;;;;;10501848;28;20059;-72
2021/09/02 04:50:40;;;;;;;0.00;0.00;;;;;;;;;;10512027;28;20561;-72
2021/09/02 04:55:44;;;;;;;0.00;0.00;;;;;;;;;;10509207;28;20060;-72
2021/09/02 05:00:48;;;;;;;0.00;0.00;;;;;;;;;;10511959;28;20062;-72
2021/09/02 05:05:51;;;;;;;0.00;0.00;;;;;;;;;;10526446;28;20520;-72
2021/09/02 05:10:55;;;;;;;0.00;0.00;;;;;;;;;;10512750;28;20498;-73
2021/09/02 05:15:59;;;;;;;0.00;0.00;;;;;;;;;;10505300;28;20067;-76
2021/09/02 05:21:02;;;;;;;0.00;0.00;;;;;;;;;;10489105;28;20055;-75
2021/09/02 05:26:05;;;;;;;0.00;0.00;;;;;;;;;;10503983;28;20071;-76
2021/09/02 05:31:09;;;;;;;0.10;0.10;;;;;;;;;;10512651;28;20048;-73
2021/09/02 05:36:12;;;;;;;0.10;0.10;;;;;;;;;;10508563;28;20062;-73
2021/09/02 05:41:20;;;;;;;0.00;0.00;;;;;;;;;;10509564;28;20052;-74
2021/09/02 05:46:24;;;;;;;0.00;0.00;;;;;;;;;;10513953;28;20080;-72
2021/09/02 05:51:27;;;;;;;0.00;0.00;;;;;;;;;;10496533;28;20078;-73
2021/09/02 05:56:31;;;;;;;0.10;0.10;;;;;;;;;;10509659;28;20048;-73
2021/09/02 06:01:35;;;;;;;0.00;0.00;;;;;;;;;;10514642;28;20508;-73
2021/09/02 06:06:42;;;;;;;0.00;0.00;;;;;;;;;;10493252;28;20067;-73
2021/09/02 06:11:45;;;;;;;0.10;0.00;;;;;;;;;;10487419;28;20497;-74
2021/09/02 06:16:49;;;;;;;0.00;0.00;;;;;;;;;;10507991;28;20049;-75
2021/09/02 06:21:52;;;;;;;0.00;0.00;;;;;;;;;;10503622;28;20528;-75
2021/09/02 06:26:55;;;;;;;0.00;0.00;;;;;;;;;;10508690;28;20044;-75
2021/09/02 06:31:59;;;;;;;0.00;0.00;;;;;;;;;;10513401;28;20043;-75
2021/09/02 06:37:01;;;;;;;0.00;0.00;;;;;;;;;;10519186;28;20596;-75
2021/09/02 06:42:04;;;;;;;0.00;0.00;;;;;;;;;;10509867;28;20036;-75
2021/09/02 06:47:08;;;;;;;0.00;0.00;;;;;;;;;;10508405;28;20076;-76
2021/09/02 06:52:12;;;;;;;0.05;0.05;;;;;;;;;;10513102;28;20047;-75
2021/09/02 06:57:15;;;;;;;0.00;0.00;;;;;;;;;;10504903;28;20044;-78
2021/09/02 07:02:19;;;;;;;0.00;0.00;;;;;;;;;;10513358;28;20464;-76
2021/09/02 07:07:23;;;;;;;0.00;0.00;;;;;;;;;;10509650;28;20055;-75
2021/09/02 07:12:25;;;;;;;0.00;0.00;;;;;;;;;;10514799;28;20059;-76
2021/09/02 07:17:34;;;;;;;0.00;0.00;;;;;;;;;;10515609;28;20045;-76
2021/09/02 07:22:37;;;;;;;0.03;0.03;;;;;;;;;;10513937;28;20041;-77
2021/09/02 07:27:40;;;;;;;0.25;0.08;;;;;;;;;;10512264;28;20410;-76
2021/09/02 07:32:44;;;;;;;0.10;0.10;;;;;;;;;;10526086;28;20850;-77
2021/09/02 07:37:47;;;;;;;0.00;0.00;;;;;;;;;;10523534;28;20043;-76
2021/09/02 07:42:50;;;;;;;0.00;0.00;;;;;;;;;;10527362;28;20478;-76
2021/09/02 07:47:54;;;;;;;0.00;0.00;;;;;;;;;;10507193;28;20123;-76
2021/09/02 07:52:57;;;;;;;0.10;0.10;;;;;;;;;;10503462;28;20122;-76
2021/09/02 07:58:01;;;;;;;0.00;0.00;;;;;;;;;;10520153;28;20054;-76
2021/09/02 08:03:06;;;;;;;0.10;0.10;;;;;;;;;;10519355;28;20048;-76
2021/09/02 08:08:16;;;;;;;0.00;0.00;;;;;;;;;;10513949;28;20041;-76
2021/09/02 08:13:21;;;;;;;0.00;0.00;;;;;;;;;;10514918;28;20052;-77
2021/09/02 08:18:28;;;;;;;0.00;0.00;;;;;;;;;;10513491;28;20067;-76
2021/09/02 08:23:31;;;;;;;0.00;0.00;;;;;;;;;;10508007;28;20466;-74
2021/09/02 08:28:33;;;;;;;0.00;0.00;;;;;;;;;;10515924;28;20036;-75
2021/09/02 08:33:38;;;;;;;0.20;0.10;;;;;;;;;;10518660;28;20058;-75
2021/09/02 08:38:46;;;;;;;0.10;0.10;;;;;;;;;;10513189;28;20396;-75
2021/09/02 08:43:51;;;;;;;0.00;0.00;;;;;;;;;;10523187;28;20059;-75
2021/09/02 08:49:11;;;;;;;0.00;0.00;;;;;;;;;;10516471;28;20182;-75
2021/09/02 08:54:14;;;;;;;0.00;0.00;;;;;;;;;;10504382;28;20063;-75
2021/09/02 08:59:16;;;;;;;0.00;0.00;;;;;;;;;;10520345;28;20951;-75
2021/09/02 09:04:20;;;;;;;0.00;0.00;;;;;;;;;;10502929;28;20058;-76
2021/09/02 09:09:23;;;;;;;0.00;0.00;;;;;;;;;;10499885;28;20406;-76
2021/09/02 09:14:28;;;;;;;0.10;0.10;;;;;;;;;;10507587;28;20059;-76
2021/09/02 09:19:36;;;;;;;0.00;0.00;;;;;;;;;;10512252;28;20047;-75
2021/09/02 09:24:43;;;;;;;0.00;0.00;;;;;;;;;;10492596;28;20056;-74
2021/09/02 09:30:01;;;;;;;0.00;0.00;;;;;;;;;;10506043;28;20398;-75
2021/09/02 09:35:06;;;;;;;0.00;0.00;;;;;;;;;;10508273;28;20058;-75
2021/09/02 09:40:19;;;;;;;0.00;0.00;;;;;;;;;;10489171;28;20044;-75
2021/09/02 09:45:32;;;;;;;0.00;0.00;;;;;;;;;;10506365;28;20044;-75
2021/09/02 09:50:36;;;;;;;0.00;0.00;;;;;;;;;;10503974;28;20041;-75
2021/09/02 09:55:39;;;;;;;0.00;0.00;;;;;;;;;;10486058;28;20159;-75
2021/09/02 10:00:41;;;;;;;0.00;0.00;;;;;;;;;;10484320;28;20040;-75
2021/09/02 10:05:46;;;;;;;0.00;0.00;;;;;;;;;;10508583;28;20054;-76
2021/09/02 10:10:49;;;;;;;0.00;0.00;;;;;;;;;;10514232;28;20537;-73
2021/09/02 10:15:52;;;;;;;0.00;0.00;;;;;;;;;;10479272;28;20055;-73
2021/09/02 10:21:00;;;;;;;0.00;0.00;;;;;;;;;;10508309;28;20073;-73
2021/09/02 10:26:03;;;;;;;0.00;0.00;;;;;;;;;;10483336;28;20056;-74
2021/09/02 10:31:07;;;;;;;0.00;0.00;;;;;;;;;;10483387;28;20045;-73
2021/09/02 10:36:28;;;;;;;0.00;0.00;;;;;;;;;;10509611;28;20071;-74
2021/09/02 10:41:47;;;;;;;0.00;0.00;;;;;;;;;;10486118;28;20051;-72
2021/09/02 10:46:53;;;;;;;0.00;0.00;;;;;;;;;;10502189;28;20458;-72
2021/09/02 10:51:57;;;;;;;0.00;0.00;;;;;;;;;;10506918;28;20047;-72
2021/09/02 10:57:05;;;;;;;0.00;0.00;;;;;;;;;;10497424;28;20132;-71
2021/09/02 11:02:09;;;;;;;0.00;0.00;;;;;;;;;;10505085;28;20079;-72
2021/09/02 11:07:12;;;;;;;0.00;0.00;;;;;;;;;;10514522;28;20043;-72
2021/09/02 11:12:20;;;;;;;0.00;0.00;;;;;;;;;;10510748;28;20457;-72
2021/09/02 11:17:23;;;;;;;0.00;0.00;;;;;;;;;;10513991;28;20055;-72
2021/09/02 11:22:46;;;;;;;0.00;0.00;;;;;;;;;;10512310;28;20048;-72
2021/09/02 11:27:58;;;;;;;0.00;0.00;;;;;;;;;;10513931;28;20047;-71
2021/09/02 11:33:02;;;;;;;0.00;0.00;;;;;;;;;;10515487;28;20041;-72
2021/09/02 11:38:05;;;;;;;0.00;0.00;;;;;;;;;;10514899;28;20121;-72
2021/09/02 11:43:16;;;;;;;0.00;0.00;;;;;;;;;;10497812;28;20037;-72
2021/09/02 11:48:18;;;;;;;0.00;0.00;;;;;;;;;;10507572;28;20044;-71
2021/09/02 11:53:26;;;;;;;0.00;0.00;;;;;;;;;;10508589;28;20051;-71
2021/09/02 11:58:30;;;;;;;0.00;0.00;;;;;;;;;;10496862;28;20051;-72
2021/09/02 12:03:32;;;;;;;0.00;0.00;;;;;;;;;;10518679;28;20405;-71
2021/09/02 12:08:35;;;;;;;0.00;0.00;;;;;;;;;;10511931;28;20040;-72
2021/09/02 12:13:39;;;;;;;0.00;0.00;;;;;;;;;;10527410;28;20127;-72
2021/09/02 12:18:43;;;;;;;0.00;0.00;;;;;;;;;;10526403;28;20405;-71
2021/09/02 12:23:47;;;;;;;0.00;0.00;;;;;;;;;;10513475;28;20048;-71
2021/09/02 12:28:52;;;;;;;0.00;0.00;;;;;;;;;;10523610;28;20052;-71
2021/09/02 12:34:03;;;;;;;0.00;0.00;;;;;;;;;;10501703;28;20522;-71
2021/09/02 12:39:19;;;;;;;0.00;0.00;;;;;;;;;;10505773;28;20074;-71
2021/09/02 12:44:27;;;;;;;0.05;0.00;;;;;;;;;;10513567;28;20394;-71
2021/09/02 12:49:30;;;;;;;0.00;0.00;;;;;;;;;;10515167;28;20048;-71
2021/09/02 12:54:48;;;;;;;0.00;0.00;;;;;;;;;;10496606;28;20094;-72
2021/09/02 12:59:52;;;;;;;0.00;0.00;;;;;;;;;;10516442;28;20055;-71
2021/09/02 13:04:54;;;;;;;0.00;0.00;;;;;;;;;;10504613;28;20048;-71
2021/09/02 13:09:58;;;;;;;0.00;0.00;;;;;;;;;;10509022;28;20418;-71
2021/09/02 13:15:04;;;;;;;0.00;0.00;;;;;;;;;;10508657;28;20489;-72
2021/09/02 13:20:07;;;;;;;0.00;0.00;;;;;;;;;;10514075;28;20044;-72
2021/09/02 13:25:11;;;;;;;0.00;0.00;;;;;;;;;;10513647;28;20040;-71
2021/09/02 13:30:16;;;;;;;0.00;0.00;;;;;;;;;;10498045;28;20048;-72
2021/09/02 13:35:19;;;;;;;0.00;0.00;;;;;;;;;;10486815;28;20056;-73
2021/09/02 13:40:22;;;;;;;0.00;0.00;;;;;;;;;;10489402;28;20476;-72
2021/09/02 13:45:26;;;;;;;0.00;0.00;;;;;;;;;;10519497;28;20066;-72
2021/09/02 13:50:29;;;;;;;0.00;0.00;;;;;;;;;;10502997;28;20051;-72
2021/09/02 13:55:32;;;;;;;0.00;0.00;;;;;;;;;;10504522;28;20491;-72
2021/09/02 14:00:39;;;;;;;0.00;0.00;;;;;;;;;;10509471;28;20492;-72
2021/09/02 14:05:42;;;;;;;0.00;0.00;;;;;;;;;;10513001;28;20069;-72
2021/09/02 14:10:45;;;;;;;0.00;0.00;;;;;;;;;;10495376;28;20501;-72
2021/09/02 14:15:50;;;;;;;0.00;0.00;;;;;;;;;;10511261;28;20050;-72
2021/09/02 14:20:55;;;;;;;0.00;0.00;;;;;;;;;;10497710;28;20135;-72
2021/09/02 14:25:58;;;;;;;0.00;0.00;;;;;;;;;;10519184;28;20036;-72
2021/09/02 14:31:04;;;;;;;0.00;0.00;;;;;;;;;;10495723;28;20051;-72
2021/09/02 14:36:07;;;;;;;0.00;0.00;;;;;;;;;;10516057;28;20032;-71
2021/09/02 14:41:11;;;;;;;0.00;0.00;;;;;;;;;;10496493;28;20048;-71
2021/09/02 14:46:15;;;;;;;0.00;0.00;;;;;;;;;;10513278;28;20128;-71
2021/09/02 14:51:18;;;;;;;0.00;0.00;;;;;;;;;;10517049;28;20036;-71
2021/09/02 14:56:21;;;;;;;0.00;0.00;;;;;;;;;;10517372;28;20513;-71
2021/09/02 15:01:24;;;;;;;0.00;0.00;;;;;;;;;;10517881;28;20044;-71
2021/09/02 15:06:27;;;;;;;0.00;0.00;;;;;;;;;;10508680;28;20123;-71
2021/09/02 15:11:31;;;;;;;0.00;0.00;;;;;;;;;;10504527;28;20045;-71
2021/09/02 15:16:35;;;;;;;0.00;0.00;;;;;;;;;;10509834;28;20109;-71
2021/09/02 15:21:38;;;;;;;0.00;0.00;;;;;;;;;;10512615;28;20438;-71
2021/09/02 15:26:43;;;;;;;0.00;0.00;;;;;;;;;;10512248;28;20040;-72
2021/09/02 15:31:47;;;;;;;0.00;0.00;;;;;;;;;;10516134;28;20394;-72
2021/09/02 15:36:50;;;;;;;0.00;0.00;;;;;;;;;;10514545;28;20044;-72
2021/09/02 15:41:53;;;;;;;0.00;0.00;;;;;;;;;;10525420;28;20094;-71
2021/09/02 15:46:57;;;;;;;0.00;0.00;;;;;;;;;;10515610;28;20075;-71
2021/09/02 15:52:00;;;;;;;0.00;0.00;;;;;;;;;;10515964;28;20066;-72
2021/09/02 15:57:04;;;;;;;0.00;0.00;;;;;;;;;;10526285;28;20059;-71
2021/09/02 16:02:09;;;;;;;0.00;0.00;;;;;;;;;;10502333;28;20043;-71
2021/09/02 16:07:13;;;;;;;0.00;0.00;;;;;;;;;;10530460;28;20045;-72
2021/09/02 16:12:17;;;;;;;0.00;0.00;;;;;;;;;;10511600;28;20053;-71
2021/09/02 16:17:23;;;;;;;0.00;0.00;;;;;;;;;;10519913;28;20048;-72
2021/09/02 16:22:26;;;;;;;0.00;0.00;;;;;;;;;;10508983;28;20058;-71
2021/09/02 16:27:29;;;;;;;0.00;0.00;;;;;;;;;;10513448;28;20048;-71
2021/09/02 16:32:35;;;;;;;0.00;0.00;;;;;;;;;;10520579;28;20036;-71
2021/09/02 16:37:39;;;;;;;0.00;0.00;;;;;;;;;;10511247;28;20506;-72
2021/09/02 16:42:42;;;;;;;0.00;0.00;;;;;;;;;;10506658;28;20056;-71
2021/09/02 16:47:48;;;;;;;0.00;0.00;;;;;;;;;;10517568;28;20139;-71
2021/09/02 16:52:53;;;;;;;0.00;0.00;;;;;;;;;;10506299;28;20054;-72
2021/09/02 16:57:55;;;;;;;0.00;0.00;;;;;;;;;;10507256;28;20086;-75
2021/09/02 17:03:04;;;;;;;0.00;0.00;;;;;;;;;;10509893;28;20115;-74
2021/09/02 17:08:07;;;;;;;0.00;0.00;;;;;;;;;;10515386;28;20500;-75
2021/09/02 17:13:10;;;;;;;0.00;0.00;;;;;;;;;;10510177;28;20044;-74
2021/09/02 17:18:15;;;;;;;0.00;0.00;;;;;;;;;;10512699;28;20048;-72
2021/09/02 17:23:17;;;;;;;0.00;0.00;;;;;;;;;;10517098;28;20036;-72
2021/09/02 17:28:21;;;;;;;0.00;0.00;;;;;;;;;;10516334;28;20425;-71
2021/09/02 17:33:26;;;;;;;0.00;0.00;;;;;;;;;;10489797;28;20472;-74
2021/09/02 17:38:29;;;;;;;0.00;0.00;;;;;;;;;;10518301;28;20119;-74
2021/09/02 17:43:32;;;;;;;0.00;0.00;;;;;;;;;;10496023;28;20044;-74
2021/09/02 17:48:37;;;;;;;0.00;0.00;;;;;;;;;;10493472;28;20040;-74
2021/09/02 17:53:40;;;;;;;0.00;0.00;;;;;;;;;;10498617;28;20051;-74
2021/09/02 17:58:43;;;;;;;0.00;0.00;;;;;;;;;;10499916;28;20512;-74
2021/09/02 18:03:47;;;;;;;0.00;0.00;;;;;;;;;;10510366;28;20052;-74
2021/09/02 18:08:50;;;;;;;0.10;0.00;;;;;;;;;;10517745;28;20063;-75
2021/09/02 18:13:52;;;;;;;0.00;0.00;;;;;;;;;;10511380;28;20044;-74
2021/09/02 18:18:57;;;;;;;0.00;0.00;;;;;;;;;;10515057;28;20043;-74
2021/09/02 18:23:59;;;;;;;0.00;0.00;;;;;;;;;;10509082;28;20043;-74
2021/09/02 18:29:03;;;;;;;0.00;0.00;;;;;;;;;;10505333;28;20051;-74
2021/09/02 18:34:07;;;;;;;0.00;0.00;;;;;;;;;;10484058;28;20041;-74
2021/09/02 18:39:10;;;;;;;0.00;0.00;;;;;;;;;;10510212;28;20147;-74
2021/09/02 18:44:14;;;;;;;0.00;0.00;;;;;;;;;;10510305;28;20044;-74
2021/09/02 18:49:18;;;;;;;0.05;0.00;;;;;;;;;;10504186;28;20039;-74
2021/09/02 18:54:21;;;;;;;0.00;0.00;;;;;;;;;;10508520;28;20051;-74
2021/09/02 18:59:23;;;;;;;0.00;0.00;;;;;;;;;;10511425;28;20056;-74
2021/09/02 19:04:28;;;;;;;0.00;0.00;;;;;;;;;;10502289;28;20484;-74
2021/09/02 19:09:31;;;;;;;0.00;0.00;;;;;;;;;;10507404;28;20501;-74
2021/09/02 19:14:35;;;;;;;0.00;0.00;;;;;;;;;;10499063;28;20056;-75
2021/09/02 19:19:42;;;;;;;0.00;0.00;;;;;;;;;;10517185;28;20048;-75
2021/09/02 19:24:46;;;;;;;0.00;0.00;;;;;;;;;;10515358;28;20063;-74
2021/09/02 19:29:49;;;;;;;0.00;0.00;;;;;;;;;;10516536;28;20047;-75
2021/09/02 19:34:54;;;;;;;0.00;0.00;;;;;;;;;;10516241;28;20048;-75
2021/09/02 19:39:58;;;;;;;0.00;0.00;;;;;;;;;;10518260;28;20032;-74
2021/09/02 19:45:02;;;;;;;0.00;0.00;;;;;;;;;;10516212;28;20788;-74
2021/09/02 19:50:07;;;;;;;0.00;0.00;;;;;;;;;;10489270;28;20052;-74
2021/09/02 19:55:27;;;;;;;0.00;0.00;;;;;;;;;;10495388;28;20186;-74
2021/09/02 20:00:31;;;;;;;0.00;0.00;;;;;;;;;;10488177;28;20044;-74
2021/09/02 20:05:38;;;;;;;0.00;0.00;;;;;;;;;;10495122;28;20065;-74
2021/09/02 20:10:41;;;;;;;0.00;0.00;;;;;;;;;;10502710;28;20048;-75
2021/09/02 20:15:50;;;;;;;0.00;0.00;;;;;;;;;;10525515;28;20051;-78
2021/09/02 20:21:00;;;;;;;0.10;0.03;;;;;;;;;;10528685;28;20059;-81
2021/09/02 20:26:04;;;;;;;0.00;0.00;;;;;;;;;;10515494;28;20036;-80
2021/09/02 20:31:08;;;;;;;0.00;0.00;;;;;;;;;;10495427;28;20132;-80
2021/09/02 20:36:17;;;;;;;0.00;0.00;;;;;;;;;;10500561;28;20056;-82
2021/09/02 20:41:22;;;;;;;0.00;0.00;;;;;;;;;;10517818;28;20501;-82
2021/09/02 20:46:26;;;;;;;0.00;0.00;;;;;;;;;;10494234;28;20050;-82
2021/09/02 20:51:31;;;;;;;0.00;0.00;;;;;;;;;;10511475;28;20044;-82
2021/09/02 20:56:35;;;;;;;0.00;0.00;;;;;;;;;;10497047;28;20047;-82
2021/09/02 21:01:39;;;;;;;0.00;0.00;;;;;;;;;;10514364;28;20379;-83
2021/09/02 21:06:43;;;;;;;0.00;0.00;;;;;;;;;;10492011;28;20455;-82
2021/09/02 21:11:47;;;;;;;0.00;0.00;;;;;;;;;;10490854;28;20048;-81
2021/09/02 21:16:51;;;;;;;0.00;0.00;;;;;;;;;;10495499;28;20106;-81
2021/09/02 21:21:56;;;;;;;0.00;0.00;;;;;;;;;;10495822;28;20047;-81
2021/09/02 21:27:04;;;;;;;0.00;0.00;;;;;;;;;;10493391;28;20498;-82
2021/09/02 21:32:09;;;;;;;0.00;0.00;;;;;;;;;;10507779;28;20043;-82
2021/09/02 21:37:14;;;;;;;0.00;0.00;;;;;;;;;;10513643;28;20402;-82
2021/09/02 21:42:19;;;;;;;0.00;0.00;;;;;;;;;;10497129;28;20498;-82
2021/09/02 21:47:25;;;;;;;0.00;0.00;;;;;;;;;;10494239;28;20037;-81
2021/09/02 21:52:30;;;;;;;0.00;0.00;;;;;;;;;;10513133;28;20052;-82
2021/09/02 21:57:34;;;;;;;0.00;0.00;;;;;;;;;;10486789;28;20075;-82
2021/09/02 22:02:37;;;;;;;0.00;0.00;;;;;;;;;;10495324;28;20045;-82
2021/09/02 22:07:40;;;;;;;0.00;0.00;;;;;;;;;;10515253;28;20048;-82
2021/09/02 22:12:46;;;;;;;0.03;0.03;;;;;;;;;;10490813;28;20090;-82
2021/09/02 22:17:51;;;;;;;0.00;0.00;;;;;;;;;;10484311;28;20049;-82
2021/09/02 22:22:55;;;;;;;0.00;0.00;;;;;;;;;;10484653;28;20068;-81
2021/09/02 22:28:00;;;;;;;0.00;0.00;;;;;;;;;;10515480;28;20048;-81
2021/09/02 22:33:04;;;;;;;0.03;0.00;;;;;;;;;;10519974;28;20433;-81
2021/09/02 22:38:08;;;;;;;0.03;0.00;;;;;;;;;;10519593;28;20486;-80
2021/09/02 22:43:13;;;;;;;0.00;0.00;;;;;;;;;;10486540;28;20135;-81
2021/09/02 22:48:17;;;;;;;0.00;0.00;;;;;;;;;;10506220;28;20073;-81
2021/09/02 22:53:19;;;;;;;0.00;0.00;;;;;;;;;;10493392;28;20398;-80
2021/09/02 22:58:24;;;;;;;0.03;0.03;;;;;;;;;;10518082;28;20124;-80
2021/09/02 23:03:27;;;;;;;0.00;0.00;;;;;;;;;;10493540;28;20048;-81
2021/09/02 23:08:33;;;;;;;0.00;0.00;;;;;;;;;;10511435;28;20119;-81
2021/09/02 23:13:46;;;;;;;0.00;0.00;;;;;;;;;;10489590;28;20051;-81
2021/09/02 23:18:48;;;;;;;0.00;0.00;;;;;;;;;;10490140;28;20055;-81
2021/09/02 23:23:52;;;;;;;0.00;0.00;;;;;;;;;;10489697;28;20051;-81
2021/09/02 23:28:59;;;;;;;0.10;0.10;;;;;;;;;;10504424;28;20040;-81
2021/09/02 23:34:02;;;;;;;0.00;0.00;;;;;;;;;;10523704;28;20048;-80
2021/09/02 23:39:05;;;;;;;0.05;0.00;;;;;;;;;;10544381;28;20052;-81
2021/09/02 23:44:10;;;;;;;0.00;0.00;;;;;;;;;;10527551;28;20041;-80
2021/09/02 23:49:15;;;;;;;0.00;0.00;;;;;;;;;;10508232;28;20055;-80
2021/09/02 23:54:19;;;;;;;0.00;0.00;;;;;;;;;;10501619;28;20047;-80
2021/09/02 23:59:23;;;;;;;0.00;0.00;;;;;;;;;;10494793;28;20493;-80
